createdAt,value
2022-12-06T00:00:42.569Z,31.30
2022-12-06T00:10:44.740Z,33.53
2022-12-06T00:20:46.947Z,28.08
2022-12-06T00:30:49.098Z,21.95
2022-12-06T00:40:58.083Z,21.80
2022-12-06T00:51:00.423Z,24.63
2022-12-06T01:01:15.767Z,23.13
2022-12-06T01:11:18.573Z,22.77
2022-12-06T01:21:22.735Z,18.52
2022-12-06T01:31:25.102Z,21.42
2022-12-06T01:41:28.350Z,20.80
2022-12-06T01:51:30.902Z,19.20
2022-12-06T02:01:34.670Z,19.92
2022-12-06T02:11:37.068Z,20.42
2022-12-06T02:21:55.797Z,18.25
2022-12-06T02:32:17.459Z,10.23
2022-12-06T02:42:25.558Z,9.93
2022-12-06T02:52:29.907Z,10.43
2022-12-06T03:02:35.496Z,7.40
2022-12-06T03:13:12.666Z,5.13
2022-12-06T03:23:18.927Z,4.38
2022-12-06T03:33:25.361Z,4.25
2022-12-06T03:43:27.801Z,4.20
2022-12-06T03:53:30.003Z,3.85
2022-12-06T04:03:32.219Z,2.70
2022-12-06T04:13:34.398Z,2.63
2022-12-06T04:23:39.389Z,1.95
2022-12-06T04:34:00.370Z,2.20
2022-12-06T04:44:04.434Z,2.55
2022-12-06T04:54:07.376Z,2.40
2022-12-06T05:04:09.682Z,2.65
2022-12-06T05:14:11.921Z,2.65
2022-12-06T05:24:14.448Z,2.10
2022-12-06T05:34:16.667Z,3.67
2022-12-06T05:44:18.951Z,4.25
2022-12-06T05:54:21.193Z,4.95
2022-12-06T06:04:23.401Z,7.07
2022-12-06T06:14:25.730Z,5.65
2022-12-06T06:24:27.972Z,4.82
2022-12-06T06:34:30.164Z,7.30
2022-12-06T06:44:33.023Z,5.38
2022-12-06T06:54:35.232Z,9.57
2022-12-06T07:04:37.396Z,7.15
2022-12-06T07:14:39.661Z,7.70
2022-12-06T07:24:45.483Z,8.52
2022-12-06T07:45:05.695Z,7.07
2022-12-06T07:55:09.207Z,5.15
2022-12-06T08:05:11.763Z,5.55
2022-12-06T08:15:13.983Z,7.40
2022-12-06T08:25:16.233Z,3.80
2022-12-06T08:35:18.438Z,6.78
2022-12-06T08:45:20.693Z,10.52
2022-12-06T08:55:22.916Z,12.43
2022-12-06T09:05:25.179Z,10.98
2022-12-06T09:15:27.436Z,8.15
2022-12-06T09:25:29.606Z,12.15
2022-12-06T09:35:32.531Z,12.02
2022-12-06T09:45:46.849Z,14.20
2022-12-06T09:55:55.076Z,19.75
2022-12-06T10:16:34.837Z,20.35
2022-12-06T10:26:47.628Z,17.67
2022-12-06T10:37:15.705Z,26.75
2022-12-06T10:47:41.988Z,47.97
2022-12-06T10:58:18.020Z,43.72
2022-12-06T11:08:26.680Z,36.95
2022-12-06T11:18:30.587Z,36.47
2022-12-06T11:28:44.266Z,41.30
2022-12-06T11:38:47.121Z,38.00
2022-12-06T11:48:50.031Z,29.83
2022-12-06T11:59:16.334Z,34.25
2022-12-06T12:09:19.982Z,44.92
2022-12-06T12:19:36.441Z,47.50
2022-12-06T12:29:38.662Z,59.15
2022-12-06T12:39:51.170Z,53.30
2022-12-06T12:50:24.052Z,53.00
2022-12-06T13:00:32.683Z,38.70
2022-12-06T13:10:38.592Z,39.35
2022-12-06T13:20:41.515Z,45.53
2022-12-06T13:30:44.570Z,44.13
2022-12-06T13:40:52.634Z,39.80
2022-12-06T13:51:01.572Z,33.05
2022-12-06T14:01:03.894Z,25.02
2022-12-06T14:11:07.307Z,22.83
2022-12-06T14:21:36.483Z,17.02
2022-12-06T14:31:40.046Z,18.98
2022-12-06T14:42:10.042Z,20.05
2022-12-06T14:52:30.613Z,17.67
2022-12-06T15:02:32.898Z,8.48
2022-12-06T15:12:55.429Z,14.77
2022-12-06T15:22:57.940Z,12.73
2022-12-06T15:33:00.093Z,43.20
2022-12-06T15:43:03.192Z,49.10
2022-12-06T15:53:05.421Z,48.03
2022-12-06T16:03:08.369Z,41.25
2022-12-06T16:13:24.539Z,34.42
2022-12-06T16:34:10.502Z,11.10
2022-12-06T16:44:12.763Z,12.32
2022-12-06T16:54:15.660Z,8.85
2022-12-06T17:04:18.600Z,8.35
2022-12-06T17:14:25.205Z,15.93
2022-12-06T17:24:28.283Z,21.00
2022-12-06T17:34:30.540Z,15.68
2022-12-06T17:44:34.190Z,14.98
2022-12-06T17:54:36.459Z,11.77
2022-12-06T18:04:38.929Z,25.58
2022-12-06T18:14:41.267Z,22.65
2022-12-06T18:24:44.878Z,11.02
2022-12-06T18:34:47.270Z,10.30
2022-12-06T18:44:51.466Z,18.13
2022-12-06T18:54:57.193Z,12.40
2022-12-06T19:05:01.289Z,17.00
2022-12-06T19:15:04.123Z,19.15
2022-12-06T19:25:06.491Z,17.10
2022-12-06T19:35:09.015Z,15.13
2022-12-06T19:45:11.303Z,10.57
2022-12-06T19:55:13.644Z,22.45
2022-12-06T20:05:16.060Z,20.52
2022-12-06T20:15:18.329Z,12.00
2022-12-06T20:25:20.556Z,8.88
2022-12-06T20:35:24.206Z,7.55
2022-12-06T20:45:26.447Z,6.25
2022-12-06T20:55:28.643Z,7.20
2022-12-06T21:05:30.854Z,7.90
2022-12-06T21:15:33.111Z,5.68
2022-12-06T21:25:39.081Z,4.43
2022-12-06T21:40:11.167Z,6.82
2022-12-06T21:50:13.414Z,6.82
2022-12-06T22:00:16.204Z,8.70
2022-12-06T22:10:18.464Z,5.03
2022-12-06T22:20:20.644Z,5.22
2022-12-06T22:30:23.027Z,2.88
2022-12-06T22:40:25.198Z,2.25
2022-12-06T22:50:27.370Z,9.88
2022-12-06T23:00:29.617Z,2.80
2022-12-06T23:10:31.810Z,2.03
2022-12-06T23:20:33.986Z,3.05
2022-12-06T23:30:36.154Z,5.72
2022-12-06T23:40:38.351Z,4.03
2022-12-06T23:50:40.536Z,6.65
